Aérodrome :
LOGIN :

S'inscrire | Disclaimer

   EN    FR    IT 

 










Légende :    VFR   VFR Marginal   IFR   IFR Intensif   IFR Très Intensif
Visi : 
Plafond : 
>= 8 km
>= 3000ft
5 à 8 km
1000 à 3000 ft
1500m à 5 km
500 à 1000 ft
800 à 1500m
200 à 500 ft
< 800m
< 200 ft
Symboles :   Orages  Brouillard  Fortes neiges  Fortes précipitations  Vent > 20 kt
SIGMETs :   Divers  Orages  Givrage  Turbulence  Onde Orograph.  Cendres Volcan.






- Altitude de l'aérodrome : 13 ft
- Code IATA : OST


EBOS - Oostend bruges Int.

DERNIER METAR :
  • 180020Z 28009KT 9999 FEW015 05/03 Q1025 NOSIG

METARs EXPIRÉS :
  • 172350Z 27009KT 9999 FEW016 BKN024 06/03 Q1025 NOSIG
  • 172320Z 28009KT 9999 FEW016 BKN024 05/03 Q1026 NOSIG
  • 172250Z 29006KT 9999 FEW016 BKN022 05/03 Q1026 NOSIG
  • 172220Z 28006KT 9999 FEW018 BKN025 05/03 Q1025 NOSIG
  • 172150Z 29008KT 9999 FEW018 BKN030 06/03 Q1025 NOSIG

TAF TAF EBOS
Valide du 18 à 00h jusqu'au 19 à 06h UTC


172310Z 1800/1906 25009KT 9999 SCT020 BKN035
BECMG 1821/1823 SCT008 BKN012
TEMPO 1823/1906 20020G32KT 4000 -RA RADZ



MET'MAP, la Météo Aéronautique d'un coup d'oeil ! - Copyright ORBIFLY Décembre 2007 - Disclaimer

ORBIFLY MET'MAP TEAM :

Programmation & Développement : Alexandra Zaïnal
Sur une idée originale de : Baudouin d'Aumeries
Assistance à la programmation : Marc-Olivier Méhu
Soutien technique & logistique : Manuel Goepfert

Contact : metmap@orbifly.com




SOURCES & CREDITS :

   NOAA